createdAt,value
2019-02-20T00:02:33.400Z,12.07
2019-02-20T00:07:28.008Z,12.23
2019-02-20T00:12:22.586Z,11.53
2019-02-20T00:17:17.179Z,12.43
2019-02-20T00:22:11.771Z,13.10
2019-02-20T00:27:06.333Z,12.07
2019-02-20T00:32:00.929Z,11.73
2019-02-20T00:36:55.507Z,11.63
2019-02-20T00:41:50.102Z,12.13
2019-02-20T00:46:46.342Z,12.23
2019-02-20T00:51:42.579Z,12.50
2019-02-20T00:56:37.150Z,14.20
2019-02-20T01:01:31.814Z,12.20
2019-02-20T01:06:26.387Z,12.03
2019-02-20T01:11:21.053Z,10.23
2019-02-20T01:16:15.663Z,9.70
2019-02-20T01:21:10.250Z,11.13
2019-02-20T01:26:04.818Z,13.47
2019-02-20T01:30:59.413Z,12.30
2019-02-20T01:35:53.985Z,10.90
2019-02-20T01:40:48.575Z,12.67
2019-02-20T01:45:43.147Z,11.40
2019-02-20T01:50:37.743Z,10.53
2019-02-20T01:55:32.325Z,10.03
2019-02-20T02:00:26.992Z,11.37
2019-02-20T02:05:21.562Z,12.83
2019-02-20T02:10:16.174Z,12.07
2019-02-20T02:15:20.064Z,11.17
2019-02-20T02:20:10.083Z,11.03
2019-02-20T02:25:05.956Z,11.97
2019-02-20T02:30:00.558Z,11.17
2019-02-20T02:34:55.138Z,10.10
2019-02-20T02:39:49.731Z,9.90
2019-02-20T02:44:44.312Z,11.43
2019-02-20T02:49:38.897Z,11.07
2019-02-20T02:54:33.476Z,11.10
2019-02-20T02:59:28.085Z,11.93
2019-02-20T03:04:22.739Z,12.63
2019-02-20T03:09:17.321Z,11.67
2019-02-20T03:14:11.894Z,11.97
2019-02-20T03:19:06.517Z,11.03
2019-02-20T03:24:01.081Z,10.53
2019-02-20T03:28:55.680Z,9.60
2019-02-20T03:33:50.335Z,9.63
2019-02-20T03:38:44.942Z,10.20
2019-02-20T03:43:39.513Z,9.53
2019-02-20T03:48:34.121Z,11.00
2019-02-20T03:53:28.703Z,11.50
2019-02-20T03:58:23.439Z,11.30
2019-02-20T04:03:18.012Z,12.70
2019-02-20T04:08:12.607Z,13.30
2019-02-20T04:13:07.196Z,12.50
2019-02-20T04:18:01.777Z,11.50
2019-02-20T04:22:56.339Z,11.77
2019-02-20T04:27:50.934Z,11.60
2019-02-20T04:32:45.503Z,10.87
2019-02-20T04:37:40.098Z,12.00
2019-02-20T04:42:34.678Z,13.17
2019-02-20T04:47:29.291Z,11.33
2019-02-20T04:52:23.935Z,11.17
2019-02-20T04:57:18.531Z,13.27
2019-02-20T05:02:13.105Z,12.17
2019-02-20T05:07:07.720Z,11.97
2019-02-20T05:12:02.285Z,12.57
2019-02-20T05:16:56.957Z,15.57
2019-02-20T05:21:51.525Z,14.70
2019-02-20T05:26:46.108Z,12.07
2019-02-20T05:31:40.680Z,11.80
2019-02-20T05:36:35.268Z,12.10
2019-02-20T05:41:29.871Z,11.97
2019-02-20T05:46:24.461Z,13.60
2019-02-20T05:51:19.036Z,15.10
2019-02-20T05:56:13.625Z,14.17
2019-02-20T06:01:08.297Z,13.93
2019-02-20T06:06:03.031Z,14.80
2019-02-20T06:11:00.500Z,16.30
2019-02-20T06:15:55.105Z,17.60
2019-02-20T06:20:49.686Z,16.83
2019-02-20T06:25:44.297Z,15.67
2019-02-20T06:30:38.990Z,14.97
2019-02-20T06:35:33.617Z,15.87
2019-02-20T06:40:28.197Z,15.90
2019-02-20T06:45:22.775Z,15.00
2019-02-20T06:50:17.462Z,16.83
2019-02-20T06:55:13.343Z,15.60
2019-02-20T07:00:12.200Z,14.70
2019-02-20T07:05:30.523Z,15.13
2019-02-20T07:10:38.292Z,19.33
2019-02-20T07:15:55.102Z,18.60
2019-02-20T07:21:15.149Z,15.13
2019-02-20T07:26:38.311Z,14.77
2019-02-20T07:31:32.951Z,15.37
2019-02-20T07:36:27.541Z,15.27
2019-02-20T07:41:22.139Z,16.40
2019-02-20T07:46:16.760Z,16.43
2019-02-20T07:51:11.360Z,16.93
2019-02-20T07:56:06.249Z,15.80
2019-02-20T08:01:00.851Z,17.53
2019-02-20T08:05:55.562Z,18.00
2019-02-20T08:10:50.159Z,17.30
2019-02-20T08:15:44.737Z,17.17
2019-02-20T08:20:39.595Z,17.83
2019-02-20T08:25:34.316Z,14.97
2019-02-20T08:30:29.154Z,16.27
2019-02-20T08:35:23.742Z,16.93
2019-02-20T08:40:20.347Z,16.17
2019-02-20T08:45:17.876Z,16.37
2019-02-20T08:50:14.106Z,16.57
2019-02-20T08:55:10.826Z,18.07
2019-02-20T09:00:12.564Z,19.53
2019-02-20T09:05:10.761Z,18.57
2019-02-20T09:10:09.875Z,18.30
2019-02-20T09:15:05.976Z,20.03
2019-02-20T09:20:00.727Z,20.60
2019-02-20T09:24:56.026Z,19.40
2019-02-20T09:29:58.355Z,20.07
2019-02-20T09:35:09.393Z,19.67
2019-02-20T09:40:16.077Z,21.20
2019-02-20T09:45:22.438Z,20.93
2019-02-20T09:50:17.031Z,21.33
2019-02-20T09:55:15.644Z,20.90
2019-02-20T10:00:17.027Z,22.10
2019-02-20T10:05:12.610Z,22.53
2019-02-20T10:10:11.247Z,22.63
2019-02-20T10:15:13.481Z,22.03
2019-02-20T10:20:10.949Z,22.93
2019-02-20T10:25:08.514Z,22.53
2019-02-20T10:30:18.949Z,23.17
2019-02-20T10:35:12.671Z,21.97
2019-02-20T10:40:10.247Z,21.27
2019-02-20T10:45:17.920Z,21.77
2019-02-20T10:50:14.650Z,22.23
2019-02-20T10:55:11.098Z,21.63
2019-02-20T11:00:23.488Z,21.90
2019-02-20T11:05:13.494Z,21.50
2019-02-20T11:10:09.704Z,21.33
2019-02-20T11:15:05.977Z,21.87
2019-02-20T11:20:06.553Z,22.10
2019-02-20T11:25:01.440Z,22.87
2019-02-20T11:29:56.041Z,22.13
2019-02-20T11:34:50.656Z,21.47
2019-02-20T11:39:45.269Z,21.60
2019-02-20T11:44:39.869Z,21.80
2019-02-20T11:49:41.072Z,21.67
2019-02-20T11:54:40.250Z,20.13
2019-02-20T11:59:35.128Z,21.40
2019-02-20T12:04:29.782Z,20.77
2019-02-20T12:09:24.451Z,20.37
2019-02-20T12:14:19.121Z,19.73
2019-02-20T12:19:13.866Z,19.40
2019-02-20T12:24:11.763Z,17.97
2019-02-20T12:29:08.089Z,19.97
2019-02-20T12:34:02.836Z,19.57
2019-02-20T12:38:57.440Z,18.43
2019-02-20T12:43:52.038Z,19.00
2019-02-20T12:48:47.466Z,17.27
2019-02-20T12:53:43.611Z,17.13
2019-02-20T12:58:39.338Z,18.73
2019-02-20T13:03:33.935Z,17.80
2019-02-20T13:08:28.735Z,17.60
2019-02-20T13:13:23.343Z,16.03
2019-02-20T13:18:17.992Z,15.63
2019-02-20T13:23:12.672Z,15.00
2019-02-20T13:28:07.385Z,14.83
2019-02-20T13:33:08.034Z,14.43
2019-02-20T13:38:02.810Z,22.20
2019-02-20T13:42:57.780Z,22.90
2019-02-20T13:47:53.071Z,20.93
2019-02-20T13:52:52.457Z,17.33
2019-02-20T13:57:44.406Z,18.47
2019-02-20T14:02:39.022Z,18.97
2019-02-20T14:07:33.627Z,21.30
2019-02-20T14:12:29.439Z,22.97
2019-02-20T14:17:26.734Z,22.17
2019-02-20T14:22:20.816Z,21.90
2019-02-20T14:27:17.251Z,21.93
2019-02-20T14:32:11.984Z,23.87
2019-02-20T14:37:06.693Z,25.00
2019-02-20T14:42:01.296Z,24.60
2019-02-20T14:46:56.099Z,23.50
2019-02-20T14:51:50.807Z,22.60
2019-02-20T14:56:45.512Z,24.30
2019-02-20T15:01:40.309Z,23.70
2019-02-20T15:06:35.194Z,23.00
2019-02-20T15:11:29.826Z,21.90
2019-02-20T15:16:24.456Z,22.37
2019-02-20T15:21:19.076Z,22.47
2019-02-20T15:26:14.443Z,22.10
2019-02-20T15:31:09.196Z,22.27
2019-02-20T15:36:03.868Z,21.43
2019-02-20T15:40:58.489Z,21.70
2019-02-20T15:45:53.112Z,21.17
2019-02-20T15:50:47.799Z,22.20
2019-02-20T15:55:42.401Z,21.73
2019-02-20T16:00:37.176Z,22.17
2019-02-20T16:05:33.068Z,22.60
2019-02-20T16:10:27.972Z,23.60
2019-02-20T16:15:24.240Z,24.03
2019-02-20T16:20:19.029Z,23.47
2019-02-20T16:25:16.167Z,24.77
2019-02-20T16:30:13.926Z,25.33
2019-02-20T16:35:11.033Z,24.80
2019-02-20T16:40:09.587Z,27.40
2019-02-20T16:45:05.001Z,27.83
2019-02-20T16:49:59.631Z,25.97
2019-02-20T16:54:55.098Z,27.60
2019-02-20T16:59:49.855Z,27.07
2019-02-20T17:04:44.452Z,28.50
2019-02-20T17:09:39.062Z,27.47
2019-02-20T17:14:33.837Z,28.10
2019-02-20T17:19:28.434Z,27.33
2019-02-20T17:24:23.037Z,29.07
2019-02-20T17:29:17.615Z,29.00
2019-02-20T17:34:12.198Z,30.10
2019-02-20T17:39:08.053Z,30.37
2019-02-20T17:44:02.626Z,30.37
2019-02-20T17:48:57.247Z,29.63
2019-02-20T17:53:51.819Z,28.93
2019-02-20T17:58:46.422Z,30.10
2019-02-20T18:03:41.181Z,28.40
2019-02-20T18:08:35.774Z,29.50
2019-02-20T18:13:30.345Z,29.03
2019-02-20T18:18:25.402Z,28.20
2019-02-20T18:23:19.975Z,29.83
2019-02-20T18:28:22.223Z,31.33
2019-02-20T18:33:10.894Z,30.57
2019-02-20T18:38:05.495Z,29.87
2019-02-20T18:43:00.111Z,30.90
2019-02-20T18:47:54.753Z,32.50
2019-02-20T18:52:49.332Z,33.17
2019-02-20T18:57:43.994Z,32.93
2019-02-20T19:02:38.584Z,40.10
2019-02-20T19:07:33.171Z,34.63
2019-02-20T19:12:35.344Z,32.60
2019-02-20T19:17:46.088Z,32.33
2019-02-20T19:23:09.434Z,30.57
2019-02-20T19:28:20.479Z,30.83
2019-02-20T19:33:51.273Z,30.90
2019-02-20T19:38:55.942Z,28.60
2019-02-20T19:44:23.538Z,30.27
2019-02-20T19:49:43.851Z,32.27
2019-02-20T19:54:45.827Z,33.90
2019-02-20T20:00:04.169Z,33.20
2019-02-20T20:05:36.378Z,32.47
2019-02-20T20:11:10.052Z,30.53
2019-02-20T20:16:31.512Z,31.20
2019-02-20T20:21:54.609Z,30.17
2019-02-20T20:27:17.688Z,31.63
2019-02-20T20:32:53.791Z,29.77
2019-02-20T20:38:10.240Z,28.40
2019-02-20T20:43:27.446Z,28.93
2019-02-20T20:48:43.021Z,29.53
2019-02-20T20:54:04.911Z,28.40
2019-02-20T20:59:21.885Z,28.97
2019-02-20T21:04:52.842Z,28.37
2019-02-20T21:09:57.653Z,31.23
2019-02-20T21:15:02.894Z,30.60
2019-02-20T21:20:29.579Z,30.47
2019-02-20T21:25:43.447Z,31.37
2019-02-20T21:31:17.232Z,32.40
2019-02-20T21:36:21.989Z,32.80
2019-02-20T21:41:26.971Z,29.97
2019-02-20T21:46:37.856Z,32.47
2019-02-20T21:51:45.457Z,31.57
2019-02-20T21:56:47.054Z,30.87
2019-02-20T22:01:58.232Z,31.30
2019-02-20T22:07:25.912Z,31.83
2019-02-20T22:13:07.418Z,31.03
2019-02-20T22:18:18.269Z,29.80
2019-02-20T22:23:29.433Z,31.20
2019-02-20T22:28:43.402Z,31.40
2019-02-20T22:34:05.117Z,30.20
2019-02-20T22:39:19.203Z,29.33
2019-02-20T22:44:49.890Z,29.30
2019-02-20T22:49:51.738Z,29.97
2019-02-20T22:55:05.259Z,29.77
2019-02-20T23:00:13.284Z,29.40
2019-02-20T23:05:43.859Z,30.70
2019-02-20T23:11:00.706Z,30.97
2019-02-20T23:15:55.285Z,31.47
2019-02-20T23:20:49.889Z,31.17
2019-02-20T23:25:44.468Z,32.57
2019-02-20T23:30:39.083Z,33.03
2019-02-20T23:35:33.655Z,31.67
2019-02-20T23:40:28.257Z,30.73
2019-02-20T23:45:22.908Z,31.40
2019-02-20T23:50:17.579Z,32.23
2019-02-20T23:55:12.227Z,30.17
